sensor_id;sensor_type;location;lat;lon;timestamp;P1;durP1;ratioP1;P2;durP2;ratioP2
39728;SDS011;25402;42.004;23.088;2023-04-29T00:01:53;7.38;;;3.60;;
39728;SDS011;25402;42.004;23.088;2023-04-29T00:04:23;8.05;;;3.85;;
39728;SDS011;25402;42.004;23.088;2023-04-29T00:06:50;6.97;;;3.58;;
39728;SDS011;25402;42.004;23.088;2023-04-29T00:09:17;6.65;;;3.83;;
39728;SDS011;25402;42.004;23.088;2023-04-29T00:11:44;7.55;;;4.07;;
39728;SDS011;25402;42.004;23.088;2023-04-29T00:14:11;6.53;;;3.70;;
39728;SDS011;25402;42.004;23.088;2023-04-29T00:16:37;7.32;;;4.22;;
39728;SDS011;25402;42.004;23.088;2023-04-29T00:19:04;8.43;;;4.40;;
39728;SDS011;25402;42.004;23.088;2023-04-29T00:21:31;8.30;;;3.83;;
39728;SDS011;25402;42.004;23.088;2023-04-29T00:23:59;11.52;;;4.18;;
39728;SDS011;25402;42.004;23.088;2023-04-29T00:26:25;8.38;;;4.35;;
39728;SDS011;25402;42.004;23.088;2023-04-29T00:28:52;15.40;;;5.07;;
39728;SDS011;25402;42.004;23.088;2023-04-29T00:31:19;9.43;;;4.32;;
39728;SDS011;25402;42.004;23.088;2023-04-29T00:33:45;13.13;;;4.38;;
39728;SDS011;25402;42.004;23.088;2023-04-29T00:36:12;8.35;;;4.85;;
39728;SDS011;25402;42.004;23.088;2023-04-29T00:38:39;7.43;;;3.35;;
39728;SDS011;25402;42.004;23.088;2023-04-29T00:41:07;10.18;;;4.03;;
39728;SDS011;25402;42.004;23.088;2023-04-29T00:43:33;6.28;;;3.92;;
39728;SDS011;25402;42.004;23.088;2023-04-29T00:46:00;11.15;;;4.18;;
39728;SDS011;25402;42.004;23.088;2023-04-29T00:48:26;9.70;;;4.05;;
39728;SDS011;25402;42.004;23.088;2023-04-29T00:50:53;8.35;;;4.18;;
39728;SDS011;25402;42.004;23.088;2023-04-29T00:53:20;9.35;;;4.75;;
39728;SDS011;25402;42.004;23.088;2023-04-29T00:55:47;12.02;;;4.18;;
39728;SDS011;25402;42.004;23.088;2023-04-29T00:58:17;9.07;;;4.40;;
39728;SDS011;25402;42.004;23.088;2023-04-29T01:00:44;10.55;;;4.15;;
39728;SDS011;25402;42.004;23.088;2023-04-29T01:03:11;8.65;;;4.38;;
39728;SDS011;25402;42.004;23.088;2023-04-29T01:05:38;6.78;;;3.92;;
39728;SDS011;25402;42.004;23.088;2023-04-29T01:08:09;8.48;;;3.72;;
39728;SDS011;25402;42.004;23.088;2023-04-29T01:10:40;9.35;;;5.22;;
39728;SDS011;25402;42.004;23.088;2023-04-29T01:13:11;8.77;;;4.80;;
39728;SDS011;25402;42.004;23.088;2023-04-29T01:15:43;11.88;;;4.68;;
39728;SDS011;25402;42.004;23.088;2023-04-29T01:18:19;5.28;;;3.50;;
39728;SDS011;25402;42.004;23.088;2023-04-29T01:20:48;7.22;;;3.50;;
39728;SDS011;25402;42.004;23.088;2023-04-29T01:23:15;9.63;;;3.70;;
39728;SDS011;25402;42.004;23.088;2023-04-29T01:25:43;8.48;;;3.90;;
39728;SDS011;25402;42.004;23.088;2023-04-29T01:28:13;7.72;;;3.30;;
39728;SDS011;25402;42.004;23.088;2023-04-29T01:30:41;7.10;;;3.92;;
39728;SDS011;25402;42.004;23.088;2023-04-29T01:33:12;9.65;;;3.22;;
39728;SDS011;25402;42.004;23.088;2023-04-29T01:35:43;8.80;;;3.50;;
39728;SDS011;25402;42.004;23.088;2023-04-29T01:38:15;7.40;;;3.60;;
39728;SDS011;25402;42.004;23.088;2023-04-29T01:40:45;9.70;;;3.47;;
39728;SDS011;25402;42.004;23.088;2023-04-29T01:43:13;11.02;;;3.67;;
39728;SDS011;25402;42.004;23.088;2023-04-29T01:45:40;8.20;;;3.20;;
39728;SDS011;25402;42.004;23.088;2023-04-29T01:48:08;10.40;;;3.33;;
39728;SDS011;25402;42.004;23.088;2023-04-29T01:50:35;8.27;;;3.47;;
39728;SDS011;25402;42.004;23.088;2023-04-29T01:53:01;10.30;;;4.07;;
39728;SDS011;25402;42.004;23.088;2023-04-29T01:55:28;12.88;;;4.55;;
39728;SDS011;25402;42.004;23.088;2023-04-29T01:57:56;9.98;;;4.60;;
39728;SDS011;25402;42.004;23.088;2023-04-29T02:00:22;12.02;;;4.60;;
39728;SDS011;25402;42.004;23.088;2023-04-29T02:02:49;12.82;;;4.88;;
39728;SDS011;25402;42.004;23.088;2023-04-29T02:05:15;11.68;;;5.05;;
39728;SDS011;25402;42.004;23.088;2023-04-29T02:07:42;12.65;;;5.00;;
39728;SDS011;25402;42.004;23.088;2023-04-29T02:10:09;10.40;;;5.05;;
39728;SDS011;25402;42.004;23.088;2023-04-29T02:12:36;15.68;;;5.20;;
39728;SDS011;25402;42.004;23.088;2023-04-29T02:15:04;10.73;;;4.95;;
39728;SDS011;25402;42.004;23.088;2023-04-29T02:17:32;16.63;;;4.88;;
39728;SDS011;25402;42.004;23.088;2023-04-29T02:19:58;12.18;;;4.70;;
39728;SDS011;25402;42.004;23.088;2023-04-29T02:22:25;12.77;;;4.60;;
39728;SDS011;25402;42.004;23.088;2023-04-29T02:24:51;13.05;;;5.05;;
39728;SDS011;25402;42.004;23.088;2023-04-29T02:27:18;10.80;;;4.85;;
39728;SDS011;25402;42.004;23.088;2023-04-29T02:29:44;10.95;;;5.40;;
39728;SDS011;25402;42.004;23.088;2023-04-29T02:32:12;9.57;;;4.45;;
39728;SDS011;25402;42.004;23.088;2023-04-29T02:34:40;11.82;;;5.18;;
39728;SDS011;25402;42.004;23.088;2023-04-29T02:37:06;12.95;;;4.15;;
39728;SDS011;25402;42.004;23.088;2023-04-29T02:39:33;11.77;;;4.72;;
39728;SDS011;25402;42.004;23.088;2023-04-29T02:41:59;8.50;;;4.57;;
39728;SDS011;25402;42.004;23.088;2023-04-29T02:44:27;8.60;;;4.00;;
39728;SDS011;25402;42.004;23.088;2023-04-29T02:46:54;7.78;;;4.03;;
39728;SDS011;25402;42.004;23.088;2023-04-29T02:49:23;7.68;;;3.67;;
39728;SDS011;25402;42.004;23.088;2023-04-29T02:51:50;9.07;;;4.72;;
39728;SDS011;25402;42.004;23.088;2023-04-29T02:54:16;8.82;;;4.43;;
39728;SDS011;25402;42.004;23.088;2023-04-29T02:56:43;10.15;;;5.03;;
39728;SDS011;25402;42.004;23.088;2023-04-29T02:59:09;10.00;;;4.75;;
39728;SDS011;25402;42.004;23.088;2023-04-29T03:01:36;6.78;;;4.60;;
39728;SDS011;25402;42.004;23.088;2023-04-29T03:04:03;11.55;;;5.15;;
39728;SDS011;25402;42.004;23.088;2023-04-29T03:06:31;11.10;;;4.65;;
39728;SDS011;25402;42.004;23.088;2023-04-29T03:08:58;12.68;;;5.00;;
39728;SDS011;25402;42.004;23.088;2023-04-29T03:11:24;8.68;;;4.57;;
39728;SDS011;25402;42.004;23.088;2023-04-29T03:13:51;9.32;;;4.82;;
39728;SDS011;25402;42.004;23.088;2023-04-29T03:16:18;9.30;;;4.15;;
39728;SDS011;25402;42.004;23.088;2023-04-29T03:18:45;10.02;;;4.22;;
39728;SDS011;25402;42.004;23.088;2023-04-29T03:21:12;9.90;;;4.65;;
39728;SDS011;25402;42.004;23.088;2023-04-29T03:23:39;18.67;;;4.50;;
39728;SDS011;25402;42.004;23.088;2023-04-29T03:26:06;10.25;;;4.70;;
39728;SDS011;25402;42.004;23.088;2023-04-29T03:28:33;8.93;;;4.80;;
39728;SDS011;25402;42.004;23.088;2023-04-29T03:30:59;17.85;;;5.15;;
39728;SDS011;25402;42.004;23.088;2023-04-29T03:33:27;15.57;;;4.68;;
39728;SDS011;25402;42.004;23.088;2023-04-29T03:35:53;10.75;;;4.10;;
39728;SDS011;25402;42.004;23.088;2023-04-29T03:38:20;12.43;;;4.43;;
39728;SDS011;25402;42.004;23.088;2023-04-29T03:40:48;10.02;;;4.72;;
39728;SDS011;25402;42.004;23.088;2023-04-29T03:43:14;13.88;;;4.28;;
39728;SDS011;25402;42.004;23.088;2023-04-29T03:45:41;9.23;;;4.50;;
39728;SDS011;25402;42.004;23.088;2023-04-29T03:48:07;9.15;;;4.80;;
39728;SDS011;25402;42.004;23.088;2023-04-29T03:50:34;10.35;;;4.70;;
39728;SDS011;25402;42.004;23.088;2023-04-29T03:53:01;10.73;;;4.55;;
39728;SDS011;25402;42.004;23.088;2023-04-29T03:55:27;10.55;;;4.35;;
39728;SDS011;25402;42.004;23.088;2023-04-29T03:57:55;12.50;;;4.85;;
39728;SDS011;25402;42.004;23.088;2023-04-29T04:00:22;7.15;;;4.15;;
39728;SDS011;25402;42.004;23.088;2023-04-29T04:02:50;11.25;;;4.30;;
39728;SDS011;25402;42.004;23.088;2023-04-29T04:05:17;11.73;;;5.10;;
39728;SDS011;25402;42.004;23.088;2023-04-29T04:07:45;12.75;;;4.43;;
39728;SDS011;25402;42.004;23.088;2023-04-29T04:10:11;11.80;;;4.20;;
39728;SDS011;25402;42.004;23.088;2023-04-29T04:12:38;10.98;;;5.13;;
39728;SDS011;25402;42.004;23.088;2023-04-29T04:15:06;9.75;;;5.18;;
39728;SDS011;25402;42.004;23.088;2023-04-29T04:17:33;16.65;;;5.93;;
39728;SDS011;25402;42.004;23.088;2023-04-29T04:19:59;10.32;;;4.90;;
39728;SDS011;25402;42.004;23.088;2023-04-29T04:22:26;11.30;;;4.93;;
39728;SDS011;25402;42.004;23.088;2023-04-29T04:24:53;13.70;;;5.15;;
39728;SDS011;25402;42.004;23.088;2023-04-29T04:27:20;11.23;;;5.25;;
39728;SDS011;25402;42.004;23.088;2023-04-29T04:29:46;21.60;;;5.70;;
39728;SDS011;25402;42.004;23.088;2023-04-29T04:32:14;19.52;;;5.35;;
39728;SDS011;25402;42.004;23.088;2023-04-29T04:34:42;23.17;;;5.75;;
39728;SDS011;25402;42.004;23.088;2023-04-29T04:37:08;9.65;;;4.85;;
39728;SDS011;25402;42.004;23.088;2023-04-29T04:39:36;13.70;;;5.32;;
39728;SDS011;25402;42.004;23.088;2023-04-29T04:42:03;16.08;;;5.03;;
39728;SDS011;25402;42.004;23.088;2023-04-29T04:44:30;16.23;;;5.25;;
39728;SDS011;25402;42.004;23.088;2023-04-29T04:46:57;9.70;;;4.40;;
39728;SDS011;25402;42.004;23.088;2023-04-29T04:49:26;19.08;;;5.10;;
39728;SDS011;25402;42.004;23.088;2023-04-29T04:51:53;11.90;;;5.00;;
39728;SDS011;25402;42.004;23.088;2023-04-29T04:54:19;14.82;;;4.68;;
39728;SDS011;25402;42.004;23.088;2023-04-29T04:56:46;11.45;;;4.65;;
39728;SDS011;25402;42.004;23.088;2023-04-29T04:59:12;15.52;;;4.68;;
39728;SDS011;25402;42.004;23.088;2023-04-29T05:01:39;12.02;;;4.60;;
39728;SDS011;25402;42.004;23.088;2023-04-29T05:04:05;9.25;;;4.38;;
39728;SDS011;25402;42.004;23.088;2023-04-29T05:06:33;7.72;;;4.63;;
39728;SDS011;25402;42.004;23.088;2023-04-29T05:09:00;9.10;;;4.57;;
39728;SDS011;25402;42.004;23.088;2023-04-29T05:11:27;16.20;;;5.70;;
39728;SDS011;25402;42.004;23.088;2023-04-29T05:13:53;15.25;;;6.15;;
39728;SDS011;25402;42.004;23.088;2023-04-29T05:16:20;18.45;;;6.07;;
39728;SDS011;25402;42.004;23.088;2023-04-29T05:18:47;13.98;;;5.03;;
39728;SDS011;25402;42.004;23.088;2023-04-29T05:21:13;16.42;;;5.05;;
39728;SDS011;25402;42.004;23.088;2023-04-29T05:23:41;9.88;;;4.53;;
39728;SDS011;25402;42.004;23.088;2023-04-29T05:26:08;13.70;;;4.60;;
39728;SDS011;25402;42.004;23.088;2023-04-29T05:28:35;9.88;;;3.88;;
39728;SDS011;25402;42.004;23.088;2023-04-29T05:31:01;11.57;;;3.90;;
39728;SDS011;25402;42.004;23.088;2023-04-29T05:33:28;7.85;;;4.03;;
39728;SDS011;25402;42.004;23.088;2023-04-29T05:35:55;10.98;;;3.50;;
39728;SDS011;25402;42.004;23.088;2023-04-29T05:38:21;12.63;;;4.13;;
39728;SDS011;25402;42.004;23.088;2023-04-29T05:40:54;8.05;;;4.15;;
39728;SDS011;25402;42.004;23.088;2023-04-29T05:43:20;11.30;;;4.13;;
39728;SDS011;25402;42.004;23.088;2023-04-29T05:45:47;9.02;;;4.25;;
39728;SDS011;25402;42.004;23.088;2023-04-29T05:48:14;11.25;;;4.53;;
39728;SDS011;25402;42.004;23.088;2023-04-29T05:50:40;9.30;;;4.22;;
39728;SDS011;25402;42.004;23.088;2023-04-29T05:53:07;8.88;;;4.05;;
39728;SDS011;25402;42.004;23.088;2023-04-29T05:55:33;9.23;;;4.22;;
39728;SDS011;25402;42.004;23.088;2023-04-29T05:58:01;9.30;;;4.30;;
39728;SDS011;25402;42.004;23.088;2023-04-29T06:00:28;13.82;;;4.40;;
39728;SDS011;25402;42.004;23.088;2023-04-29T06:02:55;9.85;;;4.70;;
39728;SDS011;25402;42.004;23.088;2023-04-29T06:05:22;8.43;;;4.88;;
39728;SDS011;25402;42.004;23.088;2023-04-29T06:07:48;10.38;;;4.95;;
39728;SDS011;25402;42.004;23.088;2023-04-29T06:10:16;10.43;;;5.30;;
39728;SDS011;25402;42.004;23.088;2023-04-29T06:12:42;11.13;;;4.72;;
39728;SDS011;25402;42.004;23.088;2023-04-29T06:15:10;12.90;;;5.13;;
39728;SDS011;25402;42.004;23.088;2023-04-29T06:17:37;18.60;;;4.72;;
39728;SDS011;25402;42.004;23.088;2023-04-29T06:20:04;14.65;;;5.03;;
39728;SDS011;25402;42.004;23.088;2023-04-29T06:22:31;12.55;;;4.93;;
39728;SDS011;25402;42.004;23.088;2023-04-29T06:24:58;8.32;;;4.43;;
39728;SDS011;25402;42.004;23.088;2023-04-29T06:27:24;9.52;;;4.43;;
39728;SDS011;25402;42.004;23.088;2023-04-29T06:29:51;9.02;;;4.22;;
39728;SDS011;25402;42.004;23.088;2023-04-29T06:32:19;11.73;;;5.05;;
39728;SDS011;25402;42.004;23.088;2023-04-29T06:34:46;12.88;;;3.90;;
39728;SDS011;25402;42.004;23.088;2023-04-29T06:37:12;9.73;;;3.78;;
39728;SDS011;25402;42.004;23.088;2023-04-29T06:39:39;8.45;;;3.72;;
39728;SDS011;25402;42.004;23.088;2023-04-29T06:42:05;19.08;;;4.07;;
39728;SDS011;25402;42.004;23.088;2023-04-29T06:44:32;7.53;;;3.67;;
39728;SDS011;25402;42.004;23.088;2023-04-29T06:46:58;8.80;;;3.67;;
39728;SDS011;25402;42.004;23.088;2023-04-29T06:49:26;7.15;;;3.75;;
39728;SDS011;25402;42.004;23.088;2023-04-29T06:51:53;12.63;;;4.40;;
39728;SDS011;25402;42.004;23.088;2023-04-29T06:54:19;19.08;;;4.30;;
39728;SDS011;25402;42.004;23.088;2023-04-29T06:56:46;7.15;;;3.40;;
39728;SDS011;25402;42.004;23.088;2023-04-29T06:59:13;8.75;;;3.60;;
39728;SDS011;25402;42.004;23.088;2023-04-29T07:01:40;14.70;;;3.95;;
39728;SDS011;25402;42.004;23.088;2023-04-29T07:04:06;8.60;;;3.17;;
39728;SDS011;25402;42.004;23.088;2023-04-29T07:06:34;15.10;;;4.10;;
39728;SDS011;25402;42.004;23.088;2023-04-29T07:09:01;11.85;;;3.63;;
39728;SDS011;25402;42.004;23.088;2023-04-29T07:11:28;78.85;;;6.32;;
39728;SDS011;25402;42.004;23.088;2023-04-29T07:13:54;10.88;;;3.70;;
39728;SDS011;25402;42.004;23.088;2023-04-29T07:16:21;10.07;;;3.47;;
39728;SDS011;25402;42.004;23.088;2023-04-29T07:18:50;8.90;;;4.28;;
39728;SDS011;25402;42.004;23.088;2023-04-29T07:21:17;9.77;;;3.92;;
39728;SDS011;25402;42.004;23.088;2023-04-29T07:23:44;10.68;;;3.80;;
39728;SDS011;25402;42.004;23.088;2023-04-29T07:26:12;48.67;;;4.97;;
39728;SDS011;25402;42.004;23.088;2023-04-29T07:28:39;9.60;;;3.70;;
39728;SDS011;25402;42.004;23.088;2023-04-29T07:31:08;11.48;;;3.60;;
39728;SDS011;25402;42.004;23.088;2023-04-29T07:33:36;13.68;;;4.22;;
39728;SDS011;25402;42.004;23.088;2023-04-29T07:36:03;13.80;;;4.60;;
39728;SDS011;25402;42.004;23.088;2023-04-29T07:38:31;36.50;;;5.03;;
39728;SDS011;25402;42.004;23.088;2023-04-29T07:40:59;14.77;;;3.72;;
39728;SDS011;25402;42.004;23.088;2023-04-29T07:43:26;5.32;;;3.65;;
39728;SDS011;25402;42.004;23.088;2023-04-29T07:45:52;13.95;;;4.20;;
39728;SDS011;25402;42.004;23.088;2023-04-29T07:48:19;7.65;;;3.70;;
39728;SDS011;25402;42.004;23.088;2023-04-29T07:50:46;8.77;;;3.83;;
39728;SDS011;25402;42.004;23.088;2023-04-29T07:53:13;6.75;;;3.42;;
39728;SDS011;25402;42.004;23.088;2023-04-29T07:55:42;11.32;;;3.58;;
39728;SDS011;25402;42.004;23.088;2023-04-29T07:58:10;7.78;;;3.60;;
39728;SDS011;25402;42.004;23.088;2023-04-29T08:00:36;45.53;;;5.30;;
39728;SDS011;25402;42.004;23.088;2023-04-29T08:03:03;11.57;;;4.30;;
39728;SDS011;25402;42.004;23.088;2023-04-29T08:05:30;6.97;;;4.18;;
39728;SDS011;25402;42.004;23.088;2023-04-29T08:07:56;9.52;;;3.97;;
39728;SDS011;25402;42.004;23.088;2023-04-29T08:10:23;9.27;;;3.80;;
39728;SDS011;25402;42.004;23.088;2023-04-29T08:12:50;11.80;;;4.13;;
39728;SDS011;25402;42.004;23.088;2023-04-29T08:15:18;15.20;;;4.13;;
39728;SDS011;25402;42.004;23.088;2023-04-29T08:17:44;7.75;;;3.63;;
39728;SDS011;25402;42.004;23.088;2023-04-29T08:20:11;8.18;;;3.45;;
39728;SDS011;25402;42.004;23.088;2023-04-29T08:22:39;10.70;;;3.63;;
39728;SDS011;25402;42.004;23.088;2023-04-29T08:25:06;10.68;;;3.72;;
39728;SDS011;25402;42.004;23.088;2023-04-29T08:27:32;11.43;;;3.42;;
39728;SDS011;25402;42.004;23.088;2023-04-29T08:29:59;80.55;;;5.80;;
39728;SDS011;25402;42.004;23.088;2023-04-29T08:32:27;12.07;;;3.15;;
39728;SDS011;25402;42.004;23.088;2023-04-29T08:34:54;6.60;;;3.15;;
39728;SDS011;25402;42.004;23.088;2023-04-29T08:37:20;11.55;;;3.13;;
39728;SDS011;25402;42.004;23.088;2023-04-29T08:39:47;5.78;;;3.05;;
39728;SDS011;25402;42.004;23.088;2023-04-29T08:42:14;36.92;;;3.90;;
39728;SDS011;25402;42.004;23.088;2023-04-29T08:44:41;9.35;;;3.40;;
39728;SDS011;25402;42.004;23.088;2023-04-29T08:47:08;4.97;;;2.60;;
39728;SDS011;25402;42.004;23.088;2023-04-29T08:49:37;5.63;;;2.70;;
39728;SDS011;25402;42.004;23.088;2023-04-29T08:52:03;6.63;;;2.40;;
39728;SDS011;25402;42.004;23.088;2023-04-29T08:54:30;7.47;;;2.67;;
39728;SDS011;25402;42.004;23.088;2023-04-29T08:56:57;5.28;;;2.75;;
39728;SDS011;25402;42.004;23.088;2023-04-29T08:59:24;4.35;;;2.65;;
39728;SDS011;25402;42.004;23.088;2023-04-29T09:01:50;7.80;;;2.60;;
39728;SDS011;25402;42.004;23.088;2023-04-29T09:04:20;7.55;;;2.70;;
39728;SDS011;25402;42.004;23.088;2023-04-29T09:06:52;6.90;;;2.63;;
39728;SDS011;25402;42.004;23.088;2023-04-29T09:09:21;7.18;;;2.30;;
39728;SDS011;25402;42.004;23.088;2023-04-29T09:11:49;7.20;;;2.63;;
39728;SDS011;25402;42.004;23.088;2023-04-29T09:14:16;17.65;;;3.20;;
39728;SDS011;25402;42.004;23.088;2023-04-29T09:16:45;7.88;;;2.90;;
39728;SDS011;25402;42.004;23.088;2023-04-29T09:19:12;9.88;;;2.85;;
39728;SDS011;25402;42.004;23.088;2023-04-29T09:21:55;7.60;;;3.10;;
39728;SDS011;25402;42.004;23.088;2023-04-29T09:24:23;6.78;;;2.72;;
39728;SDS011;25402;42.004;23.088;2023-04-29T09:26:50;14.05;;;3.03;;
39728;SDS011;25402;42.004;23.088;2023-04-29T09:29:17;5.43;;;2.50;;
39728;SDS011;25402;42.004;23.088;2023-04-29T09:31:44;6.88;;;2.22;;
39728;SDS011;25402;42.004;23.088;2023-04-29T09:34:11;5.07;;;2.63;;
39728;SDS011;25402;42.004;23.088;2023-04-29T09:36:41;7.45;;;2.92;;
39728;SDS011;25402;42.004;23.088;2023-04-29T09:39:11;20.00;;;3.10;;
39728;SDS011;25402;42.004;23.088;2023-04-29T09:41:38;10.23;;;3.00;;
39728;SDS011;25402;42.004;23.088;2023-04-29T09:44:06;5.55;;;3.15;;
39728;SDS011;25402;42.004;23.088;2023-04-29T09:46:33;9.35;;;2.83;;
39728;SDS011;25402;42.004;23.088;2023-04-29T09:49:01;5.38;;;2.80;;
39728;SDS011;25402;42.004;23.088;2023-04-29T09:51:28;14.55;;;2.80;;
39728;SDS011;25402;42.004;23.088;2023-04-29T09:53:56;7.47;;;2.50;;
39728;SDS011;25402;42.004;23.088;2023-04-29T09:56:24;7.18;;;2.67;;
39728;SDS011;25402;42.004;23.088;2023-04-29T09:58:53;6.00;;;2.55;;
39728;SDS011;25402;42.004;23.088;2023-04-29T10:01:21;3.80;;;2.25;;
39728;SDS011;25402;42.004;23.088;2023-04-29T10:03:48;5.53;;;2.17;;
39728;SDS011;25402;42.004;23.088;2023-04-29T10:06:15;9.75;;;2.60;;
39728;SDS011;25402;42.004;23.088;2023-04-29T10:08:42;10.48;;;2.70;;
39728;SDS011;25402;42.004;23.088;2023-04-29T10:11:09;5.20;;;2.45;;
39728;SDS011;25402;42.004;23.088;2023-04-29T10:13:37;11.88;;;2.72;;
39728;SDS011;25402;42.004;23.088;2023-04-29T10:16:10;8.38;;;2.67;;
39728;SDS011;25402;42.004;23.088;2023-04-29T10:18:40;5.95;;;2.28;;
39728;SDS011;25402;42.004;23.088;2023-04-29T10:21:07;7.90;;;2.67;;
39728;SDS011;25402;42.004;23.088;2023-04-29T10:23:34;4.45;;;2.10;;
39728;SDS011;25402;42.004;23.088;2023-04-29T10:26:01;6.43;;;2.58;;
39728;SDS011;25402;42.004;23.088;2023-04-29T10:28:29;6.82;;;2.42;;
39728;SDS011;25402;42.004;23.088;2023-04-29T10:30:58;4.93;;;2.53;;
39728;SDS011;25402;42.004;23.088;2023-04-29T10:33:27;6.57;;;2.60;;
39728;SDS011;25402;42.004;23.088;2023-04-29T10:35:56;6.10;;;3.10;;
39728;SDS011;25402;42.004;23.088;2023-04-29T10:38:26;6.28;;;2.65;;
39728;SDS011;25402;42.004;23.088;2023-04-29T10:40:54;8.27;;;2.70;;
39728;SDS011;25402;42.004;23.088;2023-04-29T10:43:22;10.65;;;2.55;;
39728;SDS011;25402;42.004;23.088;2023-04-29T10:45:49;4.03;;;2.58;;
39728;SDS011;25402;42.004;23.088;2023-04-29T10:48:17;7.20;;;2.53;;
39728;SDS011;25402;42.004;23.088;2023-04-29T10:51:01;4.90;;;2.10;;
39728;SDS011;25402;42.004;23.088;2023-04-29T10:53:28;4.35;;;2.17;;
39728;SDS011;25402;42.004;23.088;2023-04-29T10:55:56;5.53;;;2.20;;
39728;SDS011;25402;42.004;23.088;2023-04-29T10:58:36;8.98;;;2.70;;
39728;SDS011;25402;42.004;23.088;2023-04-29T11:01:03;8.82;;;2.72;;
39728;SDS011;25402;42.004;23.088;2023-04-29T11:03:47;6.53;;;2.20;;
39728;SDS011;25402;42.004;23.088;2023-04-29T11:06:15;6.00;;;2.47;;
39728;SDS011;25402;42.004;23.088;2023-04-29T11:08:41;4.55;;;2.40;;
39728;SDS011;25402;42.004;23.088;2023-04-29T11:11:09;5.85;;;2.13;;
39728;SDS011;25402;42.004;23.088;2023-04-29T11:13:37;8.95;;;2.40;;
39728;SDS011;25402;42.004;23.088;2023-04-29T11:16:04;10.32;;;2.40;;
39728;SDS011;25402;42.004;23.088;2023-04-29T11:18:31;5.20;;;2.00;;
39728;SDS011;25402;42.004;23.088;2023-04-29T11:21:16;5.25;;;2.22;;
39728;SDS011;25402;42.004;23.088;2023-04-29T11:23:43;5.50;;;2.28;;
39728;SDS011;25402;42.004;23.088;2023-04-29T11:26:11;10.55;;;2.60;;
39728;SDS011;25402;42.004;23.088;2023-04-29T11:28:40;5.60;;;2.10;;
39728;SDS011;25402;42.004;23.088;2023-04-29T11:31:07;4.63;;;2.00;;
39728;SDS011;25402;42.004;23.088;2023-04-29T11:33:33;5.47;;;2.35;;
39728;SDS011;25402;42.004;23.088;2023-04-29T11:36:00;6.45;;;2.58;;
39728;SDS011;25402;42.004;23.088;2023-04-29T11:38:28;7.47;;;2.90;;
39728;SDS011;25402;42.004;23.088;2023-04-29T11:40:55;11.32;;;3.17;;
39728;SDS011;25402;42.004;23.088;2023-04-29T11:43:22;8.45;;;2.70;;
39728;SDS011;25402;42.004;23.088;2023-04-29T11:45:49;5.30;;;2.40;;
39728;SDS011;25402;42.004;23.088;2023-04-29T11:48:19;7.63;;;3.03;;
39728;SDS011;25402;42.004;23.088;2023-04-29T11:50:45;8.25;;;3.00;;
39728;SDS011;25402;42.004;23.088;2023-04-29T11:53:12;10.05;;;2.85;;
39728;SDS011;25402;42.004;23.088;2023-04-29T11:55:41;10.63;;;4.68;;
39728;SDS011;25402;42.004;23.088;2023-04-29T11:58:08;10.85;;;2.78;;
39728;SDS011;25402;42.004;23.088;2023-04-29T12:00:35;4.55;;;2.17;;
39728;SDS011;25402;42.004;23.088;2023-04-29T12:03:07;5.78;;;2.10;;
39728;SDS011;25402;42.004;23.088;2023-04-29T12:05:38;3.47;;;1.80;;
39728;SDS011;25402;42.004;23.088;2023-04-29T12:08:05;5.95;;;2.35;;
39728;SDS011;25402;42.004;23.088;2023-04-29T12:10:34;3.28;;;2.20;;
39728;SDS011;25402;42.004;23.088;2023-04-29T12:13:02;4.10;;;1.95;;
39728;SDS011;25402;42.004;23.088;2023-04-29T12:15:29;7.28;;;2.28;;
39728;SDS011;25402;42.004;23.088;2023-04-29T12:17:56;5.25;;;2.10;;
39728;SDS011;25402;42.004;23.088;2023-04-29T12:20:22;8.65;;;2.35;;
39728;SDS011;25402;42.004;23.088;2023-04-29T12:22:49;7.10;;;2.10;;
39728;SDS011;25402;42.004;23.088;2023-04-29T12:25:16;7.93;;;2.40;;
39728;SDS011;25402;42.004;23.088;2023-04-29T12:27:42;7.80;;;2.80;;
39728;SDS011;25402;42.004;23.088;2023-04-29T12:30:10;4.95;;;2.42;;
39728;SDS011;25402;42.004;23.088;2023-04-29T12:32:37;19.40;;;2.63;;
39728;SDS011;25402;42.004;23.088;2023-04-29T12:35:04;4.57;;;2.42;;
39728;SDS011;25402;42.004;23.088;2023-04-29T12:37:32;3.38;;;2.00;;
39728;SDS011;25402;42.004;23.088;2023-04-29T12:39:59;4.60;;;2.35;;
39728;SDS011;25402;42.004;23.088;2023-04-29T12:42:30;10.55;;;2.30;;
39728;SDS011;25402;42.004;23.088;2023-04-29T12:44:57;6.93;;;2.60;;
39728;SDS011;25402;42.004;23.088;2023-04-29T12:47:25;5.90;;;2.15;;
39728;SDS011;25402;42.004;23.088;2023-04-29T12:52:23;5.65;;;2.47;;
39728;SDS011;25402;42.004;23.088;2023-04-29T12:54:49;8.00;;;2.50;;
39728;SDS011;25402;42.004;23.088;2023-04-29T12:57:17;5.47;;;2.50;;
39728;SDS011;25402;42.004;23.088;2023-04-29T12:59:44;9.30;;;2.35;;
39728;SDS011;25402;42.004;23.088;2023-04-29T13:02:10;7.07;;;2.63;;
39728;SDS011;25402;42.004;23.088;2023-04-29T13:04:38;11.15;;;2.33;;
39728;SDS011;25402;42.004;23.088;2023-04-29T13:07:05;5.90;;;2.35;;
39728;SDS011;25402;42.004;23.088;2023-04-29T13:09:32;8.23;;;2.50;;
39728;SDS011;25402;42.004;23.088;2023-04-29T13:12:01;6.20;;;2.22;;
39728;SDS011;25402;42.004;23.088;2023-04-29T13:14:28;6.78;;;2.40;;
39728;SDS011;25402;42.004;23.088;2023-04-29T13:16:55;5.47;;;2.20;;
39728;SDS011;25402;42.004;23.088;2023-04-29T13:19:21;8.38;;;2.25;;
39728;SDS011;25402;42.004;23.088;2023-04-29T13:21:49;5.78;;;2.10;;
39728;SDS011;25402;42.004;23.088;2023-04-29T13:24:16;7.18;;;2.13;;
39728;SDS011;25402;42.004;23.088;2023-04-29T13:26:44;10.88;;;2.40;;
39728;SDS011;25402;42.004;23.088;2023-04-29T13:29:12;5.53;;;2.25;;
39728;SDS011;25402;42.004;23.088;2023-04-29T13:31:38;9.35;;;2.33;;
39728;SDS011;25402;42.004;23.088;2023-04-29T13:34:05;9.10;;;2.78;;
39728;SDS011;25402;42.004;23.088;2023-04-29T13:36:31;6.90;;;2.70;;
39728;SDS011;25402;42.004;23.088;2023-04-29T13:38:59;7.57;;;2.33;;
39728;SDS011;25402;42.004;23.088;2023-04-29T13:41:26;9.18;;;2.58;;
39728;SDS011;25402;42.004;23.088;2023-04-29T13:43:53;7.50;;;2.40;;
39728;SDS011;25402;42.004;23.088;2023-04-29T13:46:20;6.43;;;2.80;;
39728;SDS011;25402;42.004;23.088;2023-04-29T13:48:46;12.05;;;2.88;;
39728;SDS011;25402;42.004;23.088;2023-04-29T13:51:13;10.38;;;2.78;;
39728;SDS011;25402;42.004;23.088;2023-04-29T13:53:39;11.20;;;3.10;;
39728;SDS011;25402;42.004;23.088;2023-04-29T13:56:08;11.13;;;3.83;;
39728;SDS011;25402;42.004;23.088;2023-04-29T13:58:34;12.05;;;2.78;;
39728;SDS011;25402;42.004;23.088;2023-04-29T14:01:01;8.50;;;2.78;;
39728;SDS011;25402;42.004;23.088;2023-04-29T14:03:27;9.60;;;3.40;;
39728;SDS011;25402;42.004;23.088;2023-04-29T14:05:54;8.57;;;3.78;;
39728;SDS011;25402;42.004;23.088;2023-04-29T14:08:20;8.80;;;3.25;;
39728;SDS011;25402;42.004;23.088;2023-04-29T14:10:47;10.65;;;3.03;;
39728;SDS011;25402;42.004;23.088;2023-04-29T14:13:15;6.00;;;3.08;;
39728;SDS011;25402;42.004;23.088;2023-04-29T14:15:42;12.77;;;3.40;;
39728;SDS011;25402;42.004;23.088;2023-04-29T14:18:08;9.38;;;3.15;;
39728;SDS011;25402;42.004;23.088;2023-04-29T14:20:36;6.82;;;2.88;;
39728;SDS011;25402;42.004;23.088;2023-04-29T14:23:03;8.48;;;3.13;;
39728;SDS011;25402;42.004;23.088;2023-04-29T14:25:30;9.57;;;2.80;;
39728;SDS011;25402;42.004;23.088;2023-04-29T14:27:56;9.00;;;2.95;;
39728;SDS011;25402;42.004;23.088;2023-04-29T14:30:24;8.40;;;2.80;;
39728;SDS011;25402;42.004;23.088;2023-04-29T14:32:51;8.07;;;2.20;;